Aérodrome :
LOGIN :

S'inscrire | Disclaimer

   EN    FR    IT 

 










Légende :    VFR   VFR Marginal   IFR   IFR Intensif   IFR Très Intensif
Visi : 
Plafond : 
>= 8 km
>= 3000ft
5 à 8 km
1000 à 3000 ft
1500m à 5 km
500 à 1000 ft
800 à 1500m
200 à 500 ft
< 800m
< 200 ft
Symboles :   Orages  Brouillard  Fortes neiges  Fortes précipitations  Vent > 20 kt
SIGMETs :   Divers  Orages  Givrage  Turbulence  Onde Orograph.  Cendres Volcan.






- Altitude de l'aérodrome : 20 ft


EBFN - Koksijde

DERNIER METAR :
  • 081155Z AUTO 36008KT 9999 FEW150/// SCT230/// 32/15 Q1018 BLU

METARs EXPIRÉS :
  • 081125Z AUTO 06006KT 9999 FEW150/// 34/15 Q1018 BLU
  • 081055Z AUTO 11006KT 9999 NCD 33/15 Q1018 BLU
  • 081025Z AUTO 08005KT 9999 FEW200/// 33/17 Q1018 BLU
  • 080955Z AUTO 08004KT 9999 BKN200/// 32/18 Q1018 BLU
  • 080925Z AUTO 13003KT 9999 NCD 31/17 Q1019 BLU

TAF TAF EBFN
Valide du 08 à 13h jusqu'au 08 à 22h UTC


081141Z 0813/0822 08006KT 9999 FEW120 SCT200
BECMG 0815/0817 04013KT BKN100



MET'MAP, la Météo Aéronautique d'un coup d'oeil ! - Copyright ORBIFLY Décembre 2007 - Disclaimer

ORBIFLY MET'MAP TEAM :

Programmation & Développement : Alexandra Zaïnal
Sur une idée originale de : Baudouin d'Aumeries
Assistance à la programmation : Marc-Olivier Méhu
Soutien technique & logistique : Manuel Goepfert

Contact : metmap@orbifly.com




SOURCES & CREDITS :

   NOAA